createdAt,value
2019-05-22T00:00:57.046Z,93.70
2019-05-22T00:03:44.603Z,93.60
2019-05-22T00:06:15.576Z,93.80
2019-05-22T00:08:47.650Z,93.90
2019-05-22T00:11:17.612Z,93.70
2019-05-22T00:13:47.661Z,93.50
2019-05-22T00:16:17.079Z,93.10
2019-05-22T00:18:47.300Z,93.10
2019-05-22T00:21:16.549Z,93.10
2019-05-22T00:23:48.363Z,93.30
2019-05-22T00:26:18.327Z,92.80
2019-05-22T00:28:47.640Z,92.90
2019-05-22T00:31:16.336Z,92.70
2019-05-22T00:33:45.361Z,92.80
2019-05-22T00:36:14.425Z,92.70
2019-05-22T00:38:43.525Z,92.90
2019-05-22T00:41:11.995Z,92.90
2019-05-22T00:43:42.374Z,92.70
2019-05-22T00:46:13.610Z,92.80
2019-05-22T00:48:44.003Z,92.50
2019-05-22T00:51:15.865Z,93.10
2019-05-22T00:53:51.994Z,92.90
2019-05-22T00:59:42.572Z,93.00
2019-05-22T01:02:14.043Z,92.80
2019-05-22T01:04:43.189Z,92.90
2019-05-22T01:07:18.395Z,93.00
2019-05-22T01:09:53.118Z,92.80
2019-05-22T01:12:29.295Z,93.10
2019-05-22T01:15:01.071Z,93.00
2019-05-22T01:17:33.432Z,93.00
2019-05-22T01:20:03.763Z,93.10
2019-05-22T01:22:34.057Z,93.50
2019-05-22T01:25:02.840Z,93.20
2019-05-22T01:27:32.559Z,93.00
2019-05-22T01:30:03.138Z,93.10
2019-05-22T01:32:36.934Z,93.00
2019-05-22T01:35:09.228Z,92.70
2019-05-22T01:37:39.590Z,92.70
2019-05-22T01:40:17.725Z,92.70
2019-05-22T01:42:49.450Z,92.70
2019-05-22T01:45:20.799Z,92.80
2019-05-22T01:47:56.479Z,92.80
2019-05-22T01:50:44.144Z,92.80
2019-05-22T01:53:17.976Z,92.60
2019-05-22T01:55:47.957Z,92.60
2019-05-22T01:58:18.365Z,92.50
2019-05-22T02:00:48.200Z,92.20
2019-05-22T02:03:17.756Z,92.20
2019-05-22T02:05:47.905Z,92.00
2019-05-22T02:08:17.872Z,92.30
2019-05-22T02:10:47.142Z,92.30
2019-05-22T02:13:20.186Z,92.10
2019-05-22T02:15:49.377Z,92.20
2019-05-22T02:18:19.409Z,92.40
2019-05-22T02:20:48.027Z,92.40
2019-05-22T02:23:17.625Z,92.50
2019-05-22T02:25:47.194Z,92.70
2019-05-22T02:28:16.927Z,92.70
2019-05-22T02:30:47.342Z,92.40
2019-05-22T02:33:18.945Z,92.30
2019-05-22T02:35:47.490Z,92.10
2019-05-22T02:38:17.052Z,92.10
2019-05-22T02:40:48.077Z,91.80
2019-05-22T02:43:16.906Z,91.70
2019-05-22T02:45:45.344Z,91.30
2019-05-22T02:48:15.499Z,91.70
2019-05-22T02:50:45.831Z,91.90
2019-05-22T02:53:14.953Z,92.20
2019-05-22T02:55:44.253Z,92.30
2019-05-22T02:58:13.634Z,92.10
2019-05-22T03:01:00.331Z,92.20
2019-05-22T03:03:30.537Z,92.20
2019-05-22T03:05:59.845Z,92.30
2019-05-22T03:08:34.986Z,92.40
2019-05-22T03:11:03.985Z,92.90
2019-05-22T03:13:59.719Z,92.80
2019-05-22T03:16:31.492Z,92.60
2019-05-22T03:19:09.030Z,92.40
2019-05-22T03:21:32.319Z,92.60
2019-05-22T03:24:02.239Z,92.90
2019-05-22T03:26:47.259Z,93.10
2019-05-22T03:29:16.591Z,93.20
2019-05-22T03:31:45.756Z,93.20
2019-05-22T03:34:14.511Z,93.20
2019-05-22T03:36:43.367Z,93.20
2019-05-22T03:39:12.490Z,93.50
2019-05-22T03:41:41.478Z,93.70
2019-05-22T03:44:12.485Z,93.70
2019-05-22T03:46:48.206Z,93.80
2019-05-22T03:49:29.837Z,94.50
2019-05-22T03:51:52.438Z,94.40
2019-05-22T03:54:21.771Z,94.50
2019-05-22T03:56:50.454Z,94.50
2019-05-22T03:59:20.109Z,94.60
2019-05-22T04:01:48.814Z,94.70
2019-05-22T04:04:20.323Z,94.70
2019-05-22T04:06:52.198Z,94.90
2019-05-22T04:09:23.227Z,95.00
2019-05-22T04:11:54.981Z,95.00
2019-05-22T04:14:26.652Z,95.00
2019-05-22T04:16:55.220Z,94.90
2019-05-22T04:19:24.159Z,94.90
2019-05-22T04:21:54.243Z,95.00
2019-05-22T04:24:23.460Z,94.80
2019-05-22T04:26:52.589Z,94.80
2019-05-22T04:29:21.270Z,94.70
2019-05-22T04:32:00.111Z,94.80
2019-05-22T04:34:28.967Z,94.90
2019-05-22T04:36:57.599Z,94.90
2019-05-22T04:39:27.424Z,94.70
2019-05-22T04:41:58.985Z,95.00
2019-05-22T04:44:28.045Z,94.70
2019-05-22T04:46:57.067Z,94.70
2019-05-22T04:49:25.961Z,94.80
2019-05-22T04:51:54.761Z,94.40
2019-05-22T04:54:23.974Z,94.20
2019-05-22T04:56:53.557Z,94.60
2019-05-22T04:59:22.266Z,94.30
2019-05-22T05:01:50.746Z,93.50
2019-05-22T05:04:19.350Z,93.80
2019-05-22T05:06:49.664Z,93.30
2019-05-22T05:09:18.928Z,93.40
2019-05-22T05:11:48.096Z,92.90
2019-05-22T05:14:16.594Z,93.10
2019-05-22T05:16:46.859Z,92.90
2019-05-22T05:19:15.317Z,92.50
2019-05-22T05:21:44.088Z,92.30
2019-05-22T05:24:12.967Z,92.20
2019-05-22T05:26:42.030Z,92.10
2019-05-22T05:29:25.314Z,91.80
2019-05-22T05:31:54.009Z,91.40
2019-05-22T05:34:31.255Z,91.10
2019-05-22T05:37:02.003Z,91.40
2019-05-22T05:39:40.023Z,90.90
2019-05-22T05:42:08.981Z,91.10
2019-05-22T05:44:37.796Z,90.90
2019-05-22T05:47:06.991Z,91.10
2019-05-22T05:49:35.699Z,91.30
2019-05-22T05:52:06.942Z,91.40
2019-05-22T05:54:36.476Z,91.60
2019-05-22T05:57:38.483Z,91.30
2019-05-22T06:00:11.279Z,91.70
2019-05-22T06:02:54.035Z,91.40
2019-05-22T06:05:11.021Z,91.60
2019-05-22T06:07:39.502Z,91.60
2019-05-22T06:10:29.383Z,91.60
2019-05-22T06:12:58.826Z,91.40
2019-05-22T06:15:47.277Z,90.90
2019-05-22T06:18:30.558Z,90.80
2019-05-22T06:21:03.774Z,90.10
2019-05-22T06:23:33.849Z,90.40
2019-05-22T06:26:02.953Z,90.30
2019-05-22T06:28:37.897Z,90.10
2019-05-22T06:31:09.123Z,90.20
2019-05-22T06:33:38.781Z,89.60
2019-05-22T06:36:11.716Z,89.50
2019-05-22T06:38:49.724Z,89.60
2019-05-22T06:41:20.069Z,87.90
2019-05-22T06:44:09.648Z,87.80
2019-05-22T06:46:46.516Z,87.60
2019-05-22T06:49:33.026Z,86.40
2019-05-22T06:52:02.394Z,86.60
2019-05-22T06:54:31.005Z,87.30
2019-05-22T06:56:59.503Z,85.80
2019-05-22T06:59:29.041Z,85.40
2019-05-22T07:02:01.400Z,86.50
2019-05-22T07:04:29.150Z,85.70
2019-05-22T07:06:57.998Z,84.00
2019-05-22T07:09:26.653Z,84.60
2019-05-22T07:11:55.654Z,84.70
2019-05-22T07:14:24.729Z,83.20
2019-05-22T07:16:55.986Z,83.30
2019-05-22T07:19:25.035Z,82.70
2019-05-22T07:21:53.754Z,83.20
2019-05-22T07:24:23.851Z,82.40
2019-05-22T07:26:53.439Z,82.40
2019-05-22T07:29:21.990Z,82.90
2019-05-22T07:31:50.500Z,83.60
2019-05-22T07:34:19.624Z,83.80
2019-05-22T07:36:48.126Z,81.30
2019-05-22T07:39:17.510Z,81.70
2019-05-22T07:41:46.148Z,81.20
2019-05-22T07:44:14.598Z,80.90
2019-05-22T07:46:43.077Z,80.50
2019-05-22T07:49:12.072Z,81.00
2019-05-22T07:51:53.226Z,81.90
2019-05-22T07:54:11.383Z,81.60
2019-05-22T07:56:40.962Z,82.80
2019-05-22T07:59:10.251Z,81.90
2019-05-22T08:01:38.988Z,82.60
2019-05-22T08:04:08.696Z,82.70
2019-05-22T08:06:40.908Z,82.90
2019-05-22T08:09:10.820Z,82.80
2019-05-22T08:11:40.217Z,83.20
2019-05-22T08:14:11.138Z,83.50
2019-05-22T08:16:40.147Z,82.90
2019-05-22T08:19:08.813Z,82.80
2019-05-22T08:21:37.406Z,83.20
2019-05-22T08:24:07.464Z,83.60
2019-05-22T08:26:53.166Z,80.00
2019-05-22T08:29:09.380Z,78.50
2019-05-22T08:31:40.420Z,79.30
2019-05-22T08:34:10.165Z,77.80
2019-05-22T08:36:39.939Z,77.50
2019-05-22T08:39:09.830Z,77.10
2019-05-22T08:41:40.835Z,76.70
2019-05-22T08:44:16.679Z,75.90
2019-05-22T08:46:40.096Z,75.20
2019-05-22T08:49:11.417Z,76.90
2019-05-22T08:51:39.903Z,76.10
2019-05-22T08:54:11.208Z,76.40
2019-05-22T08:56:43.061Z,76.80
2019-05-22T08:59:19.326Z,77.20
2019-05-22T09:01:42.833Z,76.00
2019-05-22T09:04:11.336Z,75.80
2019-05-22T09:06:40.365Z,75.90
2019-05-22T09:09:08.969Z,76.10
2019-05-22T09:11:37.378Z,74.90
2019-05-22T09:14:05.953Z,73.30
2019-05-22T09:16:34.738Z,74.60
2019-05-22T09:19:03.303Z,73.40
2019-05-22T09:21:32.139Z,74.30
2019-05-22T09:24:01.816Z,72.90
2019-05-22T09:26:30.803Z,74.00
2019-05-22T09:28:59.281Z,74.30
2019-05-22T09:31:28.083Z,75.20
2019-05-22T09:33:57.009Z,76.10
2019-05-22T09:36:25.490Z,75.10
2019-05-22T09:38:53.983Z,73.50
2019-05-22T09:41:22.539Z,72.90
2019-05-22T09:43:52.136Z,72.20
2019-05-22T09:46:20.958Z,73.00
2019-05-22T09:48:49.706Z,72.70
2019-05-22T09:51:18.567Z,70.70
2019-05-22T09:53:47.801Z,69.30
2019-05-22T09:56:16.217Z,69.50
2019-05-22T09:58:44.965Z,67.70
2019-05-22T10:01:13.610Z,68.70
2019-05-22T10:03:42.300Z,67.60
2019-05-22T10:06:11.598Z,65.80
2019-05-22T10:08:40.328Z,66.00
2019-05-22T10:11:08.816Z,67.10
2019-05-22T10:13:37.798Z,66.30
2019-05-22T10:16:06.850Z,66.30
2019-05-22T10:18:35.361Z,66.10
2019-05-22T10:21:04.782Z,66.30
2019-05-22T10:23:33.274Z,67.50
2019-05-22T10:26:02.876Z,68.40
2019-05-22T10:28:31.371Z,68.90
2019-05-22T10:31:01.027Z,68.50
2019-05-22T10:33:30.244Z,68.60
2019-05-22T10:35:59.670Z,69.00
2019-05-22T10:38:31.300Z,69.50
2019-05-22T10:40:59.982Z,69.50
2019-05-22T10:43:29.271Z,69.50
2019-05-22T10:45:58.333Z,69.50
2019-05-22T10:48:27.186Z,69.50
2019-05-22T10:50:55.882Z,70.10
2019-05-22T10:53:33.819Z,70.00
2019-05-22T10:55:55.046Z,69.80
2019-05-22T10:58:23.816Z,70.60
2019-05-22T11:00:52.506Z,70.00
2019-05-22T11:03:21.061Z,69.30
2019-05-22T11:06:05.604Z,70.10
2019-05-22T11:08:21.112Z,69.80
2019-05-22T11:10:50.306Z,69.00
2019-05-22T11:13:18.990Z,69.50
2019-05-22T11:15:48.397Z,69.40
2019-05-22T11:18:16.898Z,69.20
2019-05-22T11:20:45.765Z,66.00
2019-05-22T11:23:14.213Z,64.90
2019-05-22T11:25:42.758Z,63.80
2019-05-22T11:28:11.192Z,64.30
2019-05-22T11:30:40.401Z,63.80
2019-05-22T11:33:09.360Z,63.90
2019-05-22T11:35:38.081Z,63.20
2019-05-22T11:38:06.584Z,61.80
2019-05-22T11:40:35.695Z,60.60
2019-05-22T11:43:05.150Z,60.10
2019-05-22T11:45:34.151Z,59.60
2019-05-22T11:48:02.863Z,59.80
2019-05-22T11:50:33.230Z,59.20
2019-05-22T11:53:02.172Z,59.90
2019-05-22T11:55:44.229Z,58.50
2019-05-22T11:58:03.095Z,58.90
2019-05-22T12:00:31.693Z,59.40
2019-05-22T12:03:02.323Z,59.10
2019-05-22T12:05:32.244Z,59.50
2019-05-22T12:08:01.313Z,59.40
2019-05-22T12:10:30.540Z,60.10
2019-05-22T12:12:59.505Z,59.70
2019-05-22T12:15:29.674Z,59.50
2019-05-22T12:17:58.811Z,60.00
2019-05-22T12:20:27.683Z,59.60
2019-05-22T12:22:56.810Z,60.00
2019-05-22T12:25:26.317Z,60.10
2019-05-22T12:27:55.669Z,60.00
2019-05-22T12:30:26.778Z,60.50
2019-05-22T12:32:56.278Z,61.40
2019-05-22T12:35:26.561Z,61.90
2019-05-22T12:37:55.999Z,62.60
2019-05-22T12:40:29.400Z,63.20
2019-05-22T12:42:58.607Z,64.00
2019-05-22T12:45:28.961Z,64.30
2019-05-22T12:47:58.507Z,63.40
2019-05-22T12:50:29.872Z,64.60
2019-05-22T12:53:00.384Z,64.30
2019-05-22T12:55:29.707Z,65.00
2019-05-22T12:57:59.497Z,65.20
2019-05-22T13:00:29.171Z,65.30
2019-05-22T13:02:59.956Z,64.40
2019-05-22T13:05:29.129Z,64.90
2019-05-22T13:07:58.471Z,65.50
2019-05-22T13:10:28.062Z,65.50
2019-05-22T13:12:57.253Z,66.40
2019-05-22T13:15:26.404Z,65.90
2019-05-22T13:17:55.529Z,65.50
2019-05-22T13:20:41.902Z,65.10
2019-05-22T13:22:58.762Z,64.80
2019-05-22T13:25:29.607Z,64.00
2019-05-22T13:28:00.408Z,63.70
2019-05-22T13:30:31.044Z,62.60
2019-05-22T13:33:00.201Z,61.70
2019-05-22T13:35:29.175Z,61.60
2019-05-22T13:37:57.805Z,60.90
2019-05-22T13:40:28.122Z,59.90
2019-05-22T13:42:58.461Z,58.70
2019-05-22T13:45:29.688Z,57.80
2019-05-22T13:47:58.138Z,57.80
2019-05-22T13:50:28.898Z,57.20
2019-05-22T13:53:00.711Z,57.40
2019-05-22T13:55:29.915Z,57.60
2019-05-22T13:57:59.718Z,56.90
2019-05-22T14:00:28.286Z,56.30
2019-05-22T14:02:57.747Z,56.20
2019-05-22T14:05:29.517Z,57.00
2019-05-22T14:07:58.385Z,56.40
2019-05-22T14:10:28.761Z,56.70
2019-05-22T14:12:59.220Z,55.10
2019-05-22T14:15:47.283Z,55.00
2019-05-22T14:17:59.837Z,55.40
2019-05-22T14:20:28.626Z,55.30
2019-05-22T14:22:57.110Z,55.60
2019-05-22T14:25:26.441Z,56.80
2019-05-22T14:27:55.334Z,56.50
2019-05-22T14:30:26.530Z,56.90
2019-05-22T14:32:57.470Z,55.70
2019-05-22T14:35:27.900Z,54.10
2019-05-22T14:37:57.162Z,53.70
2019-05-22T14:40:25.963Z,53.90
2019-05-22T14:42:55.174Z,54.40
2019-05-22T14:45:24.753Z,52.20
2019-05-22T14:47:53.980Z,51.30
2019-05-22T14:50:24.680Z,52.00
2019-05-22T14:52:53.742Z,52.80
2019-05-22T14:55:22.360Z,53.60
2019-05-22T14:57:51.154Z,52.90
2019-05-22T15:00:22.282Z,53.40
2019-05-22T15:02:56.928Z,53.10
2019-05-22T15:05:22.710Z,53.40
2019-05-22T15:07:51.343Z,54.40
2019-05-22T15:10:22.187Z,55.00
2019-05-22T15:12:50.996Z,54.60
2019-05-22T15:15:21.087Z,55.00
2019-05-22T15:17:50.130Z,55.30
2019-05-22T15:20:23.586Z,54.70
2019-05-22T15:22:55.928Z,54.90
2019-05-22T15:25:23.426Z,55.10
2019-05-22T15:27:52.675Z,55.60
2019-05-22T15:30:21.534Z,55.60
2019-05-22T15:32:49.991Z,55.40
2019-05-22T15:35:19.473Z,55.40
2019-05-22T15:37:48.585Z,55.90
2019-05-22T15:40:19.240Z,55.60
2019-05-22T15:42:48.128Z,56.50
2019-05-22T15:45:27.389Z,56.90
2019-05-22T15:47:58.095Z,57.00
2019-05-22T15:50:30.066Z,56.30
2019-05-22T15:53:03.835Z,56.40
2019-05-22T15:55:34.026Z,56.50
2019-05-22T15:58:05.339Z,55.30
2019-05-22T16:00:36.661Z,54.80
2019-05-22T16:03:15.083Z,54.60
2019-05-22T16:05:45.080Z,54.80
2019-05-22T16:08:16.036Z,54.50
2019-05-22T16:10:50.310Z,56.00
2019-05-22T16:13:22.638Z,57.20
2019-05-22T16:15:54.577Z,57.70
2019-05-22T16:18:28.594Z,58.10
2019-05-22T16:21:02.931Z,58.00
2019-05-22T16:23:33.157Z,58.10
2019-05-22T16:26:03.317Z,56.40
2019-05-22T16:28:36.045Z,57.30
2019-05-22T16:31:07.090Z,57.40
2019-05-22T16:33:37.095Z,57.30
2019-05-22T16:36:06.872Z,57.40
2019-05-22T16:38:37.422Z,58.00
2019-05-22T16:41:06.815Z,57.80
2019-05-22T16:43:49.052Z,58.80
2019-05-22T16:46:09.907Z,59.40
2019-05-22T16:48:40.595Z,60.10
2019-05-22T16:51:11.699Z,61.20
2019-05-22T16:53:40.865Z,61.20
2019-05-22T16:56:09.554Z,61.30
2019-05-22T16:58:38.037Z,61.00
2019-05-22T17:01:08.960Z,60.90
2019-05-22T17:03:38.924Z,60.80
2019-05-22T17:06:07.478Z,59.80
2019-05-22T17:08:37.347Z,59.30
2019-05-22T17:11:07.190Z,58.20
2019-05-22T17:13:36.861Z,57.70
2019-05-22T17:16:06.924Z,58.10
2019-05-22T17:18:47.277Z,57.10
2019-05-22T17:21:07.356Z,57.60
2019-05-22T17:23:36.366Z,57.80
2019-05-22T17:26:05.513Z,56.60
2019-05-22T17:28:34.625Z,56.30
2019-05-22T17:31:03.967Z,56.10
2019-05-22T17:33:33.726Z,56.90
2019-05-22T17:36:05.752Z,56.30
2019-05-22T17:38:33.806Z,56.20
2019-05-22T17:41:03.299Z,55.90
2019-05-22T17:43:33.783Z,55.50
2019-05-22T17:46:04.211Z,55.40
2019-05-22T17:48:35.490Z,55.00
2019-05-22T17:51:05.029Z,54.70
2019-05-22T17:53:34.982Z,55.20
2019-05-22T17:56:04.238Z,55.00
2019-05-22T17:58:32.815Z,54.90
2019-05-22T18:01:02.088Z,54.70
2019-05-22T18:03:31.488Z,54.80
2019-05-22T18:06:00.660Z,55.10
2019-05-22T18:08:29.146Z,54.80
2019-05-22T18:10:58.884Z,52.80
2019-05-22T18:13:28.343Z,51.20
2019-05-22T18:16:04.682Z,51.50
2019-05-22T18:18:32.649Z,51.90
2019-05-22T18:21:01.441Z,51.70
2019-05-22T18:23:30.471Z,51.70
2019-05-22T18:25:58.936Z,52.00
2019-05-22T18:28:27.492Z,52.00
2019-05-22T18:30:57.183Z,52.10
2019-05-22T18:33:25.679Z,52.50
2019-05-22T18:35:54.645Z,52.60
2019-05-22T18:38:23.124Z,52.60
2019-05-22T18:40:51.616Z,53.10
2019-05-22T18:43:22.995Z,53.50
2019-05-22T18:45:50.961Z,53.90
2019-05-22T18:48:19.446Z,54.80
2019-05-22T18:50:47.925Z,54.50
2019-05-22T18:53:16.663Z,55.00
2019-05-22T18:55:45.060Z,55.80
2019-05-22T18:58:13.483Z,56.70
2019-05-22T19:00:42.042Z,57.10
2019-05-22T19:03:11.061Z,58.10
2019-05-22T19:05:39.744Z,58.50
2019-05-22T19:08:08.264Z,59.10
2019-05-22T19:10:36.807Z,59.60
2019-05-22T19:13:05.689Z,60.00
2019-05-22T19:15:34.547Z,60.60
2019-05-22T19:18:03.061Z,60.90
2019-05-22T19:20:31.608Z,61.30
2019-05-22T19:23:01.736Z,61.50
2019-05-22T19:25:30.484Z,61.40
2019-05-22T19:27:59.315Z,62.50
2019-05-22T19:30:27.893Z,62.90
2019-05-22T19:32:56.588Z,63.40
2019-05-22T19:35:25.078Z,63.70
2019-05-22T19:37:54.658Z,64.00
2019-05-22T19:40:23.609Z,64.30
2019-05-22T19:42:52.854Z,64.90
2019-05-22T19:45:22.082Z,65.10
2019-05-22T19:47:53.042Z,65.40
2019-05-22T19:50:24.055Z,65.80
2019-05-22T19:52:54.736Z,66.80
2019-05-22T19:55:26.601Z,67.80
2019-05-22T19:57:57.229Z,68.70
2019-05-22T20:00:26.358Z,68.60
2019-05-22T20:02:55.683Z,70.10
2019-05-22T20:05:25.452Z,72.00
2019-05-22T20:07:54.888Z,72.80
2019-05-22T20:10:23.779Z,74.10
2019-05-22T20:12:52.254Z,75.10
2019-05-22T20:15:20.746Z,76.00
2019-05-22T20:17:49.205Z,76.50
2019-05-22T20:20:19.106Z,77.60
2019-05-22T20:22:47.978Z,77.50
2019-05-22T20:25:17.298Z,77.70
2019-05-22T20:27:46.215Z,78.10
2019-05-22T20:30:18.417Z,78.30
2019-05-22T20:32:46.914Z,78.20
2019-05-22T20:35:16.934Z,78.10
2019-05-22T20:37:46.529Z,78.30
2019-05-22T20:40:18.159Z,78.30
2019-05-22T20:42:46.632Z,77.90
2019-05-22T20:45:17.473Z,78.00
2019-05-22T20:47:46.869Z,78.20
2019-05-22T20:50:15.645Z,77.80
2019-05-22T20:52:45.604Z,76.80
2019-05-22T20:55:14.966Z,76.50
2019-05-22T20:57:43.757Z,76.00
2019-05-22T21:00:14.914Z,76.30
2019-05-22T21:02:45.234Z,76.80
2019-05-22T21:05:15.520Z,76.70
2019-05-22T21:07:50.960Z,76.80
2019-05-22T21:10:22.524Z,76.80
2019-05-22T21:12:51.552Z,76.60
2019-05-22T21:15:20.978Z,77.00
2019-05-22T21:17:50.648Z,77.20
2019-05-22T21:20:21.399Z,77.60
2019-05-22T21:22:49.942Z,78.20
2019-05-22T21:25:18.939Z,78.70
2019-05-22T21:27:47.430Z,79.00
2019-05-22T21:30:17.366Z,79.50
2019-05-22T21:32:45.849Z,79.80
2019-05-22T21:35:16.422Z,79.90
2019-05-22T21:37:44.910Z,79.90
2019-05-22T21:40:15.126Z,80.20
2019-05-22T21:42:45.473Z,80.20
2019-05-22T21:45:14.809Z,80.30
2019-05-22T21:47:44.334Z,80.10
2019-05-22T21:50:13.906Z,79.40
2019-05-22T21:52:43.323Z,79.80
2019-05-22T21:55:13.597Z,79.80
2019-05-22T21:57:42.582Z,80.80
2019-05-22T22:03:22.108Z,81.30
2019-05-22T22:05:50.561Z,81.40
2019-05-22T22:08:19.002Z,81.30
2019-05-22T22:10:48.102Z,81.70
2019-05-22T22:13:17.286Z,81.90
2019-05-22T22:15:48.885Z,81.80
2019-05-22T22:18:18.059Z,81.90
2019-05-22T22:20:46.792Z,81.80
2019-05-22T22:23:16.549Z,82.10
2019-05-22T22:25:46.073Z,81.60
2019-05-22T22:28:16.562Z,82.80
2019-05-22T22:31:02.175Z,82.80
2019-05-22T22:33:32.388Z,82.90
2019-05-22T22:36:02.181Z,82.80
2019-05-22T22:38:32.886Z,82.70
2019-05-22T22:41:02.468Z,81.60
2019-05-22T22:43:33.890Z,81.90
2019-05-22T22:46:08.902Z,81.80
2019-05-22T22:48:40.039Z,81.50
2019-05-22T22:51:11.764Z,81.00
2019-05-22T22:53:42.145Z,81.00
2019-05-22T22:56:11.896Z,80.40
2019-05-22T22:58:40.986Z,80.20
2019-05-22T23:01:14.177Z,79.90
2019-05-22T23:03:45.742Z,80.60
2019-05-22T23:06:14.800Z,82.10
2019-05-22T23:08:43.466Z,81.80
2019-05-22T23:11:13.199Z,81.90
2019-05-22T23:13:41.621Z,81.90
2019-05-22T23:16:11.745Z,81.40
2019-05-22T23:18:47.034Z,81.60
2019-05-22T23:21:16.026Z,81.40
2019-05-22T23:23:45.959Z,81.50
2019-05-22T23:26:16.127Z,81.30
2019-05-22T23:28:45.060Z,81.40
2019-05-22T23:31:14.145Z,81.00
2019-05-22T23:33:42.658Z,81.20
2019-05-22T23:36:11.936Z,81.60
2019-05-22T23:38:41.325Z,82.70
2019-05-22T23:41:10.058Z,83.50
2019-05-22T23:43:38.601Z,83.80
2019-05-22T23:46:08.534Z,84.00
2019-05-22T23:48:37.917Z,83.50
2019-05-22T23:51:08.487Z,83.10
2019-05-22T23:53:37.688Z,83.20
2019-05-22T23:56:06.615Z,83.60
2019-05-22T23:58:49.808Z,83.20
